createdAt,value
2023-04-08T00:01:42.796Z,17.07
2023-04-08T00:04:11.056Z,19.33
2023-04-08T00:06:39.175Z,17.67
2023-04-08T00:09:07.216Z,17.63
2023-04-08T00:11:35.941Z,18.43
2023-04-08T00:14:04.842Z,17.70
2023-04-08T00:16:33.508Z,18.47
2023-04-08T00:19:03.020Z,16.17
2023-04-08T00:21:31.613Z,17.47
2023-04-08T00:23:59.757Z,15.87
2023-04-08T00:26:27.984Z,14.00
2023-04-08T00:28:56.003Z,19.60
2023-04-08T00:31:24.164Z,14.67
2023-04-08T00:33:52.404Z,18.17
2023-04-08T00:36:21.847Z,20.07
2023-04-08T00:38:50.189Z,14.73
2023-04-08T00:41:18.619Z,15.53
2023-04-08T00:43:46.656Z,14.83
2023-04-08T00:46:14.695Z,19.77
2023-04-08T00:48:42.827Z,18.77
2023-04-08T00:51:11.150Z,18.90
2023-04-08T00:53:40.630Z,24.10
2023-04-08T00:56:08.675Z,16.20
2023-04-08T00:58:37.071Z,15.83
2023-04-08T01:01:11.693Z,16.20
2023-04-08T01:03:48.105Z,18.93
2023-04-08T01:06:23.494Z,18.10
2023-04-08T01:08:53.993Z,15.20
2023-04-08T01:11:22.522Z,19.90
2023-04-08T01:13:52.405Z,20.50
2023-04-08T01:16:22.029Z,17.30
2023-04-08T01:18:53.008Z,16.03
2023-04-08T01:21:23.184Z,17.00
2023-04-08T01:24:02.200Z,19.10
2023-04-08T01:26:32.597Z,19.07
2023-04-08T01:29:02.999Z,18.73
2023-04-08T01:31:32.931Z,18.67
2023-04-08T01:34:02.868Z,18.93
2023-04-08T01:36:33.225Z,17.47
2023-04-08T01:39:03.074Z,17.30
2023-04-08T01:41:35.122Z,17.07
2023-04-08T01:44:05.107Z,18.60
2023-04-08T01:46:33.740Z,18.27
2023-04-08T01:49:02.255Z,18.13
2023-04-08T01:51:31.887Z,18.13
2023-04-08T01:53:59.989Z,20.27
2023-04-08T01:56:34.112Z,17.97
2023-04-08T01:59:04.873Z,20.13
2023-04-08T02:01:36.398Z,20.97
2023-04-08T02:04:05.469Z,24.43
2023-04-08T02:06:34.372Z,19.57
2023-04-08T02:09:03.140Z,23.73
2023-04-08T02:11:32.593Z,22.47
2023-04-08T02:14:00.608Z,22.17
2023-04-08T02:16:35.105Z,26.77
2023-04-08T02:19:09.340Z,23.40
2023-04-08T02:21:43.387Z,23.03
2023-04-08T02:24:13.876Z,26.20
2023-04-08T02:26:45.097Z,27.63
2023-04-08T02:29:16.128Z,30.90
2023-04-08T02:31:45.073Z,26.33
2023-04-08T02:34:13.741Z,27.03
2023-04-08T02:36:42.951Z,26.17
2023-04-08T02:39:11.307Z,31.67
2023-04-08T02:41:39.343Z,25.37
2023-04-08T02:44:09.414Z,29.50
2023-04-08T02:46:37.455Z,29.60
2023-04-08T02:49:05.670Z,27.93
2023-04-08T02:51:33.643Z,32.37
2023-04-08T02:54:01.618Z,27.40
2023-04-08T02:56:29.627Z,34.20
2023-04-08T02:58:57.635Z,30.70
2023-04-08T03:01:27.210Z,33.07
2023-04-08T03:03:55.307Z,31.97
2023-04-08T03:06:23.378Z,37.87
2023-04-08T03:08:51.758Z,30.70
2023-04-08T03:11:20.005Z,30.67
2023-04-08T03:13:48.004Z,32.97
2023-04-08T03:16:16.343Z,33.03
2023-04-08T03:18:45.765Z,36.93
2023-04-08T03:21:13.776Z,36.63
2023-04-08T03:23:41.809Z,35.50
2023-04-08T03:26:09.816Z,35.77
2023-04-08T03:28:37.918Z,35.80
2023-04-08T03:31:06.435Z,38.30
2023-04-08T03:33:34.517Z,36.73
2023-04-08T03:36:03.987Z,36.97
2023-04-08T03:38:32.068Z,39.37
2023-04-08T03:41:00.136Z,45.30
2023-04-08T03:43:28.206Z,41.77
2023-04-08T03:45:57.336Z,43.03
2023-04-08T03:48:25.468Z,45.07
2023-04-08T03:50:53.666Z,40.13
2023-04-08T03:53:23.118Z,40.70
2023-04-08T03:55:51.771Z,49.13
2023-04-08T03:58:19.943Z,41.00
2023-04-08T04:00:48.124Z,45.20
2023-04-08T04:03:16.470Z,42.00
2023-04-08T04:05:44.620Z,43.97
2023-04-08T04:08:12.809Z,38.47
2023-04-08T04:10:42.345Z,42.23
2023-04-08T04:13:10.505Z,44.23
2023-04-08T04:15:40.160Z,48.23
2023-04-08T04:18:08.409Z,45.57
2023-04-08T04:20:38.276Z,44.60
2023-04-08T04:23:06.410Z,41.87
2023-04-08T04:25:34.681Z,46.70
2023-04-08T04:28:04.298Z,51.77
2023-04-08T04:30:32.482Z,49.37
2023-04-08T04:33:00.629Z,51.57
2023-04-08T04:35:28.906Z,44.07
2023-04-08T04:37:57.580Z,49.73
2023-04-08T04:40:25.704Z,48.57
2023-04-08T04:42:53.844Z,44.90
2023-04-08T04:45:23.383Z,45.33
2023-04-08T04:47:51.528Z,49.70
2023-04-08T04:50:19.955Z,49.67
2023-04-08T04:52:48.135Z,46.10
2023-04-08T04:55:16.635Z,48.00
2023-04-08T04:57:44.839Z,47.53
2023-04-08T05:00:13.644Z,50.03
2023-04-08T05:02:43.226Z,47.10
2023-04-08T05:05:11.803Z,48.80
2023-04-08T05:07:40.091Z,46.50
2023-04-08T05:10:08.994Z,46.67
2023-04-08T05:12:38.757Z,44.40
2023-04-08T05:15:08.187Z,50.50
2023-04-08T05:17:36.636Z,46.13
2023-04-08T05:20:07.047Z,51.53
2023-04-08T05:22:35.544Z,53.03
2023-04-08T05:25:07.899Z,47.37
2023-04-08T05:27:36.289Z,57.47
2023-04-08T05:30:04.868Z,48.93
2023-04-08T05:32:33.022Z,49.13
2023-04-08T05:35:05.459Z,53.37
2023-04-08T05:37:33.486Z,50.73
2023-04-08T05:40:01.652Z,53.73
2023-04-08T05:42:29.640Z,54.70
2023-04-08T05:44:57.785Z,49.90
2023-04-08T05:47:25.871Z,48.10
2023-04-08T05:49:54.331Z,54.37
2023-04-08T05:52:23.807Z,49.63
2023-04-08T05:54:51.845Z,48.33
2023-04-08T05:57:19.875Z,42.80
2023-04-08T05:59:47.853Z,52.87
2023-04-08T06:02:15.977Z,42.77
2023-04-08T06:04:44.154Z,45.30
2023-04-08T06:07:12.368Z,43.87
2023-04-08T06:09:42.449Z,47.93
2023-04-08T06:12:11.861Z,42.67
2023-04-08T06:14:39.868Z,44.00
2023-04-08T06:17:08.003Z,44.47
2023-04-08T06:19:36.520Z,44.27
2023-04-08T06:22:04.581Z,42.20
2023-04-08T06:24:32.845Z,42.50
2023-04-08T06:27:03.013Z,36.80
2023-04-08T06:29:31.365Z,36.43
2023-04-08T06:31:59.509Z,40.93
2023-04-08T06:34:27.537Z,39.97
2023-04-08T06:36:55.542Z,39.63
2023-04-08T06:39:23.693Z,39.97
2023-04-08T06:41:53.786Z,39.87
2023-04-08T06:44:23.156Z,36.10
2023-04-08T06:46:51.215Z,32.23
2023-04-08T06:49:19.217Z,34.17
2023-04-08T06:51:47.231Z,35.63
2023-04-08T06:54:15.330Z,32.93
2023-04-08T06:56:43.387Z,37.70
2023-04-08T06:59:11.527Z,31.90
2023-04-08T07:01:41.762Z,44.13
2023-04-08T07:04:09.921Z,47.00
2023-04-08T07:06:38.003Z,44.87
2023-04-08T07:09:06.882Z,38.10
2023-04-08T07:11:34.935Z,35.60
2023-04-08T07:14:02.946Z,35.43
2023-04-08T07:16:31.004Z,30.83
2023-04-08T07:19:00.423Z,34.60
2023-04-08T07:21:28.439Z,26.37
2023-04-08T07:23:56.511Z,27.17
2023-04-08T07:26:24.541Z,28.70
2023-04-08T07:28:53.166Z,31.20
2023-04-08T07:31:21.585Z,27.47
2023-04-08T07:33:49.796Z,28.60
2023-04-08T07:36:19.186Z,25.57
2023-04-08T07:38:47.440Z,26.47
2023-04-08T07:41:15.796Z,26.17
2023-04-08T07:43:43.840Z,23.30
2023-04-08T07:46:12.042Z,24.43
2023-04-08T07:48:40.252Z,24.03
2023-04-08T07:51:25.411Z,23.97
2023-04-08T07:53:54.833Z,22.10
2023-04-08T07:56:22.878Z,21.93
2023-04-08T07:58:53.404Z,21.77
2023-04-08T08:01:23.014Z,19.17
2023-04-08T08:03:52.255Z,18.87
2023-04-08T08:06:23.883Z,23.83
2023-04-08T08:08:52.031Z,17.27
2023-04-08T08:11:22.365Z,17.60
2023-04-08T08:13:50.682Z,20.43
2023-04-08T08:16:18.824Z,18.53
2023-04-08T08:18:46.880Z,19.37
2023-04-08T08:21:15.530Z,20.17
2023-04-08T08:23:43.581Z,17.13
2023-04-08T08:26:12.129Z,18.53
2023-04-08T08:28:41.698Z,18.00
2023-04-08T08:31:09.787Z,19.83
2023-04-08T08:33:37.824Z,19.13
2023-04-08T08:36:07.383Z,18.40
2023-04-08T08:38:35.479Z,17.97
2023-04-08T08:41:04.639Z,19.20
2023-04-08T08:43:33.729Z,19.40
2023-04-08T08:46:03.769Z,18.67
2023-04-08T08:48:32.676Z,19.60
2023-04-08T08:51:01.078Z,19.70
2023-04-08T08:53:35.159Z,20.33
2023-04-08T08:58:35.334Z,18.47
2023-04-08T09:01:32.236Z,20.60
2023-04-08T09:04:11.936Z,15.90
2023-04-08T09:06:40.676Z,15.50
2023-04-08T09:09:11.129Z,15.53
2023-04-08T09:11:40.828Z,20.87
2023-04-08T09:14:19.721Z,17.90
2023-04-08T09:16:49.388Z,19.23
2023-04-08T09:19:17.604Z,17.63
2023-04-08T09:21:46.123Z,15.47
2023-04-08T09:24:30.213Z,18.57
2023-04-08T09:26:58.238Z,16.67
2023-04-08T09:29:29.917Z,16.53
2023-04-08T09:32:02.778Z,18.50
2023-04-08T09:34:34.162Z,18.90
2023-04-08T09:37:02.504Z,21.17
2023-04-08T09:39:30.846Z,17.60
2023-04-08T09:42:01.966Z,15.77
2023-04-08T09:44:31.259Z,15.83
2023-04-08T09:47:09.550Z,13.57
2023-04-08T09:49:45.001Z,12.70
2023-04-08T09:52:16.185Z,12.10
2023-04-08T09:54:52.529Z,13.03
2023-04-08T09:57:26.707Z,12.40
2023-04-08T10:00:01.868Z,11.87
2023-04-08T10:02:35.831Z,12.40
2023-04-08T10:05:08.298Z,13.03
2023-04-08T10:07:36.741Z,13.43
2023-04-08T10:10:05.728Z,12.30
2023-04-08T10:12:34.120Z,11.43
2023-04-08T10:15:27.515Z,11.23
2023-04-08T10:17:58.217Z,11.10
2023-04-08T10:20:44.884Z,14.27
2023-04-08T10:23:14.259Z,16.17
2023-04-08T10:25:43.311Z,15.27
2023-04-08T10:28:27.475Z,13.00
2023-04-08T10:30:56.659Z,19.60
2023-04-08T10:33:34.598Z,17.33
2023-04-08T10:36:11.779Z,15.97
2023-04-08T10:38:42.086Z,16.00
2023-04-08T10:41:11.978Z,18.17
2023-04-08T10:43:40.036Z,28.70
2023-04-08T10:46:11.673Z,15.03
2023-04-08T10:48:41.244Z,14.80
2023-04-08T10:51:09.312Z,17.57
2023-04-08T10:53:39.192Z,17.07
2023-04-08T10:56:09.310Z,16.10
2023-04-08T10:58:37.518Z,17.93
2023-04-08T11:01:07.641Z,19.17
2023-04-08T11:03:37.209Z,17.10
2023-04-08T11:06:07.549Z,16.53
2023-04-08T11:08:37.634Z,17.67
2023-04-08T11:11:09.192Z,18.03
2023-04-08T11:13:38.323Z,14.33
2023-04-08T11:16:17.800Z,15.00
2023-04-08T11:18:47.957Z,13.77
2023-04-08T11:21:17.931Z,15.83
2023-04-08T11:23:46.443Z,16.40
2023-04-08T11:26:16.325Z,16.37
2023-04-08T11:28:44.701Z,16.87
2023-04-08T11:31:13.430Z,17.20
2023-04-08T11:33:47.058Z,26.00
2023-04-08T11:36:15.496Z,21.60
2023-04-08T11:38:47.899Z,15.77
2023-04-08T11:41:16.880Z,16.97
2023-04-08T11:43:56.456Z,14.37
2023-04-08T11:46:25.396Z,14.73
2023-04-08T11:49:04.556Z,14.33
2023-04-08T11:51:34.185Z,35.57
2023-04-08T11:54:06.543Z,38.03
2023-04-08T11:56:46.835Z,21.97
2023-04-08T11:59:14.877Z,15.93
2023-04-08T12:01:43.112Z,19.90
2023-04-08T12:04:12.695Z,18.07
2023-04-08T12:06:43.561Z,15.90
2023-04-08T12:09:13.009Z,17.70
2023-04-08T12:11:41.274Z,16.60
2023-04-08T12:14:09.801Z,15.67
2023-04-08T12:16:38.035Z,18.83
2023-04-08T12:19:06.105Z,18.20
2023-04-08T12:21:34.598Z,15.70
2023-04-08T12:24:02.764Z,16.80
2023-04-08T12:26:32.134Z,17.07
2023-04-08T12:29:00.782Z,17.37
2023-04-08T12:31:28.883Z,18.43
2023-04-08T12:33:56.936Z,18.13
2023-04-08T12:36:25.074Z,18.57
2023-04-08T12:38:53.247Z,17.00
2023-04-08T12:41:21.764Z,18.07
2023-04-08T12:43:51.172Z,21.27
2023-04-08T12:46:19.255Z,20.00
2023-04-08T12:48:48.450Z,18.93
2023-04-08T12:51:17.340Z,19.07
2023-04-08T12:53:45.465Z,19.70
2023-04-08T12:56:13.542Z,19.07
2023-04-08T12:58:41.578Z,19.63
2023-04-08T13:01:12.475Z,18.70
2023-04-08T13:03:43.307Z,18.10
2023-04-08T13:06:12.419Z,20.27
2023-04-08T13:08:40.612Z,17.83
2023-04-08T13:11:09.451Z,21.10
2023-04-08T13:13:37.783Z,19.20
2023-04-08T13:16:06.034Z,18.33
2023-04-08T13:18:35.447Z,18.47
2023-04-08T13:21:03.439Z,18.23
2023-04-08T13:23:31.441Z,19.27
2023-04-08T13:25:59.515Z,20.37
2023-04-08T13:28:27.620Z,19.50
2023-04-08T13:30:55.842Z,17.37
2023-04-08T13:33:24.523Z,18.40
2023-04-08T13:35:53.944Z,18.17
2023-04-08T13:38:22.021Z,21.87
2023-04-08T13:40:50.194Z,21.90
2023-04-08T13:43:18.293Z,18.97
2023-04-08T13:45:46.480Z,20.83
2023-04-08T13:48:14.718Z,21.37
2023-04-08T13:50:43.768Z,19.57
2023-04-08T13:53:13.322Z,17.90
2023-04-08T13:55:41.683Z,20.60
2023-04-08T13:58:21.210Z,20.87
2023-04-08T14:00:52.524Z,21.90
2023-04-08T14:03:21.066Z,21.07
2023-04-08T14:05:50.857Z,24.70
2023-04-08T14:08:25.224Z,24.73
2023-04-08T14:10:53.658Z,24.40
2023-04-08T14:13:21.819Z,28.03
2023-04-08T14:15:49.966Z,22.90
2023-04-08T14:18:18.337Z,24.53
2023-04-08T14:20:46.548Z,28.10
2023-04-08T14:23:14.607Z,21.87
2023-04-08T14:25:44.006Z,21.83
2023-04-08T14:28:12.311Z,21.53
2023-04-08T14:30:40.339Z,23.00
2023-04-08T14:33:08.498Z,21.77
2023-04-08T14:35:36.730Z,24.43
2023-04-08T14:38:04.827Z,36.00
2023-04-08T14:40:32.820Z,26.77
2023-04-08T14:43:02.197Z,26.40
2023-04-08T14:45:30.352Z,22.87
2023-04-08T14:47:58.401Z,27.40
2023-04-08T14:50:26.964Z,22.07
2023-04-08T14:52:54.965Z,28.17
2023-04-08T14:55:23.213Z,24.13
2023-04-08T14:57:51.578Z,25.37
2023-04-08T15:00:21.148Z,21.77
2023-04-08T15:02:49.276Z,22.43
2023-04-08T15:05:17.376Z,23.60
2023-04-08T15:07:47.031Z,23.10
2023-04-08T15:10:15.149Z,22.83
2023-04-08T15:12:43.157Z,20.10
2023-04-08T15:15:11.632Z,21.70
2023-04-08T15:17:41.074Z,23.87
2023-04-08T15:20:11.023Z,18.70
2023-04-08T15:22:39.051Z,21.53
2023-04-08T15:25:07.880Z,18.70
2023-04-08T15:27:36.645Z,22.03
2023-04-08T15:30:05.057Z,25.23
2023-04-08T15:32:33.414Z,21.73
2023-04-08T15:35:03.106Z,21.73
2023-04-08T15:37:31.245Z,21.33
2023-04-08T15:39:59.675Z,23.63
2023-04-08T15:42:27.788Z,22.27
2023-04-08T15:44:56.041Z,27.17
2023-04-08T15:47:24.055Z,27.87
2023-04-08T15:49:55.755Z,20.17
2023-04-08T15:52:26.021Z,20.47
2023-04-08T15:54:54.046Z,19.20
2023-04-08T15:57:26.593Z,20.37
2023-04-08T15:59:54.938Z,21.53
2023-04-08T16:02:23.154Z,17.30
2023-04-08T16:04:51.305Z,19.77
2023-04-08T16:07:19.332Z,18.63
2023-04-08T16:09:48.741Z,21.67
2023-04-08T16:12:16.708Z,20.17
2023-04-08T16:14:44.706Z,22.00
2023-04-08T16:17:12.758Z,22.07
2023-04-08T16:19:40.896Z,20.53
2023-04-08T16:22:08.918Z,20.70
2023-04-08T16:24:37.462Z,23.23
2023-04-08T16:27:06.855Z,24.47
2023-04-08T16:29:34.847Z,18.43
2023-04-08T16:32:02.858Z,26.13
2023-04-08T16:34:30.898Z,26.40
2023-04-08T16:36:58.906Z,25.20
2023-04-08T16:39:26.902Z,27.53
2023-04-08T16:41:54.941Z,23.07
2023-04-08T16:44:24.267Z,23.93
2023-04-08T16:46:52.306Z,23.27
2023-04-08T16:49:20.315Z,22.53
2023-04-08T16:51:49.001Z,22.03
2023-04-08T16:54:16.999Z,22.70
2023-04-08T16:56:45.805Z,20.23
2023-04-08T16:59:14.207Z,19.03
2023-04-08T17:01:43.661Z,24.57
2023-04-08T17:04:11.741Z,23.60
2023-04-08T17:06:42.640Z,21.07
2023-04-08T17:09:11.548Z,21.00
2023-04-08T17:11:39.578Z,23.17
2023-04-08T17:14:07.595Z,23.83
2023-04-08T17:16:35.754Z,25.73
2023-04-08T17:19:05.581Z,22.60
2023-04-08T17:21:33.606Z,24.27
2023-04-08T17:24:01.628Z,23.97
2023-04-08T17:26:29.602Z,21.60
2023-04-08T17:28:57.618Z,22.27
2023-04-08T17:31:25.753Z,23.73
2023-04-08T17:33:53.736Z,25.20
2023-04-08T17:36:23.131Z,24.97
2023-04-08T17:38:51.814Z,25.67
2023-04-08T17:41:38.076Z,24.73
2023-04-08T17:44:07.791Z,25.13
2023-04-08T17:46:36.807Z,25.30
2023-04-08T17:49:04.793Z,28.27
2023-04-08T17:51:34.364Z,24.43
2023-04-08T17:54:02.344Z,25.33
2023-04-08T17:56:30.490Z,23.87
2023-04-08T17:58:58.515Z,23.30
2023-04-08T18:01:26.587Z,24.93
2023-04-08T18:03:54.977Z,28.07
2023-04-08T18:06:23.281Z,26.10
2023-04-08T18:08:52.716Z,25.83
2023-04-08T18:11:21.084Z,26.37
2023-04-08T18:13:49.362Z,23.87
2023-04-08T18:16:18.241Z,23.73
2023-04-08T18:18:46.894Z,22.70
2023-04-08T18:21:15.341Z,25.10
2023-04-08T18:23:43.340Z,24.50
2023-04-08T18:26:12.719Z,22.93
2023-04-08T18:28:40.802Z,21.23
2023-04-08T18:31:08.865Z,23.33
2023-04-08T18:33:38.881Z,25.17
2023-04-08T18:36:08.910Z,23.20
2023-04-08T18:38:37.339Z,24.33
2023-04-08T18:41:05.811Z,23.83
2023-04-08T18:43:35.614Z,25.50
2023-04-08T18:46:04.705Z,22.97
2023-04-08T18:48:33.235Z,22.30
2023-04-08T18:51:01.925Z,21.20
2023-04-08T18:53:30.662Z,21.40
2023-04-08T18:55:58.746Z,21.23
2023-04-08T18:58:27.193Z,20.90
2023-04-08T19:00:56.568Z,23.10
2023-04-08T19:03:27.100Z,22.53
2023-04-08T19:05:55.453Z,21.67
2023-04-08T19:08:23.461Z,22.40
2023-04-08T19:10:51.537Z,25.37
2023-04-08T19:13:19.511Z,26.97
2023-04-08T19:15:47.546Z,27.67
2023-04-08T19:18:16.930Z,26.77
2023-04-08T19:20:45.572Z,24.03
2023-04-08T19:23:13.551Z,23.40
2023-04-08T19:25:41.532Z,20.90
2023-04-08T19:28:09.588Z,24.47
2023-04-08T19:30:38.672Z,26.60
2023-04-08T19:33:07.864Z,26.90
2023-04-08T19:35:37.568Z,27.40
2023-04-08T19:38:05.718Z,26.50
2023-04-08T19:40:33.688Z,25.43
2023-04-08T19:43:01.745Z,23.80
2023-04-08T19:45:29.707Z,25.07
2023-04-08T19:47:58.126Z,26.17
2023-04-08T19:50:26.155Z,24.30
2023-04-08T19:52:55.596Z,24.00
2023-04-08T19:55:23.836Z,26.07
2023-04-08T19:57:52.771Z,24.27
2023-04-08T20:00:20.987Z,25.40
2023-04-08T20:02:49.378Z,23.03
2023-04-08T20:05:17.712Z,25.90
2023-04-08T20:07:45.762Z,24.33
2023-04-08T20:10:15.999Z,25.10
2023-04-08T20:12:43.991Z,26.53
2023-04-08T20:15:23.531Z,26.27
2023-04-08T20:17:53.109Z,24.27
2023-04-08T20:20:21.511Z,19.10
2023-04-08T20:22:49.530Z,21.67
2023-04-08T20:25:19.108Z,21.13
2023-04-08T20:27:47.134Z,23.60
2023-04-08T20:30:15.146Z,23.40
2023-04-08T20:32:43.219Z,21.87
2023-04-08T20:35:11.824Z,25.07
2023-04-08T20:37:39.855Z,25.30
2023-04-08T20:40:09.266Z,24.93
2023-04-08T20:42:38.702Z,23.73
2023-04-08T20:45:07.783Z,25.10
2023-04-08T20:47:35.857Z,22.93
2023-04-08T20:50:04.866Z,22.00
2023-04-08T20:52:33.066Z,21.37
2023-04-08T20:55:01.313Z,24.57
2023-04-08T20:57:29.323Z,22.40
2023-04-08T20:59:58.764Z,22.60
2023-04-08T21:02:27.463Z,23.33
2023-04-08T21:04:55.734Z,21.17
2023-04-08T21:07:26.003Z,23.13
2023-04-08T21:09:53.983Z,22.37
2023-04-08T21:12:22.041Z,25.53
2023-04-08T21:14:50.860Z,22.60
2023-04-08T21:17:20.317Z,20.17
2023-04-08T21:19:48.422Z,23.13
2023-04-08T21:22:17.669Z,25.13
2023-04-08T21:24:45.666Z,21.47
2023-04-08T21:27:13.690Z,27.97
2023-04-08T21:29:41.666Z,27.73
2023-04-08T21:32:09.831Z,23.60
2023-04-08T21:34:39.346Z,27.43
2023-04-08T21:37:07.462Z,25.60
2023-04-08T21:39:38.267Z,22.83
2023-04-08T21:42:06.392Z,21.43
2023-04-08T21:44:34.584Z,21.13
2023-04-08T21:47:02.617Z,22.13
2023-04-08T21:49:30.744Z,25.60
2023-04-08T21:52:00.142Z,23.17
2023-04-08T21:54:28.173Z,22.43
2023-04-08T21:56:56.689Z,21.47
2023-04-08T21:59:24.848Z,25.73
2023-04-08T22:01:52.799Z,25.27
2023-04-08T22:04:21.209Z,26.60
2023-04-08T22:06:49.857Z,23.00
2023-04-08T22:09:19.502Z,22.70
2023-04-08T22:11:47.612Z,24.93
2023-04-08T22:14:17.627Z,25.93
2023-04-08T22:16:45.925Z,19.97
2023-04-08T22:19:14.099Z,21.10
2023-04-08T22:21:42.273Z,22.57
2023-04-08T22:24:10.481Z,24.23
2023-04-08T22:26:40.106Z,20.47
2023-04-08T22:29:08.202Z,22.90
2023-04-08T22:31:36.257Z,25.70
2023-04-08T22:34:04.428Z,25.70
2023-04-08T22:36:32.464Z,23.37
2023-04-08T22:39:00.526Z,21.07
2023-04-08T22:41:28.788Z,22.90
2023-04-08T22:43:58.272Z,23.93
2023-04-08T22:46:26.609Z,22.27
2023-04-08T22:48:54.845Z,25.77
2023-04-08T22:51:23.557Z,21.03
2023-04-08T22:53:51.677Z,24.80
2023-04-08T22:56:19.719Z,27.07
2023-04-08T22:58:47.765Z,20.80
2023-04-08T23:01:20.765Z,27.20
2023-04-08T23:03:48.938Z,26.53
2023-04-08T23:06:17.009Z,26.77
2023-04-08T23:08:45.028Z,27.50
2023-04-08T23:11:13.028Z,25.60
2023-04-08T23:13:41.234Z,26.53
2023-04-08T23:16:09.915Z,27.73
2023-04-08T23:18:39.410Z,32.00
2023-04-08T23:21:07.625Z,27.63
2023-04-08T23:23:35.660Z,29.67
2023-04-08T23:26:03.694Z,29.37
2023-04-08T23:28:31.723Z,26.77
2023-04-08T23:31:00.306Z,30.60
2023-04-08T23:33:28.339Z,28.90
2023-04-08T23:35:57.802Z,29.03
2023-04-08T23:38:25.966Z,32.13
2023-04-08T23:40:54.149Z,26.90
2023-04-08T23:43:22.203Z,27.73
2023-04-08T23:45:50.284Z,25.57
2023-04-08T23:48:18.268Z,32.40
2023-04-08T23:50:46.276Z,32.90
2023-04-08T23:53:15.701Z,25.30
2023-04-08T23:55:43.732Z,30.20
2023-04-08T23:58:11.760Z,35.00
